createdAt,value
2022-12-23T00:01:50.432Z,13.67
2022-12-23T00:04:17.294Z,13.69
2022-12-23T00:06:43.956Z,13.68
2022-12-23T00:09:10.494Z,13.63
2022-12-23T00:11:37.164Z,13.56
2022-12-23T00:14:22.514Z,13.48
2022-12-23T00:16:50.515Z,13.35
2022-12-23T00:19:17.428Z,13.29
2022-12-23T00:21:44.107Z,13.22
2022-12-23T00:24:11.819Z,13.14
2022-12-23T00:26:38.598Z,13.11
2022-12-23T00:29:05.185Z,13.01
2022-12-23T00:31:31.806Z,12.94
2022-12-23T00:33:58.428Z,12.89
2022-12-23T00:36:29.888Z,12.86
2022-12-23T00:39:17.496Z,12.84
2022-12-23T00:42:03.327Z,12.78
2022-12-23T00:44:29.986Z,12.75
2022-12-23T00:46:56.539Z,12.74
2022-12-23T00:49:41.871Z,12.70
2022-12-23T00:52:13.712Z,12.66
2022-12-23T00:54:41.054Z,12.63
2022-12-23T00:57:07.883Z,12.62
2022-12-23T00:59:34.485Z,12.61
2022-12-23T01:02:19.752Z,12.60
2022-12-23T01:05:04.675Z,12.58
2022-12-23T01:07:31.261Z,12.56
2022-12-23T01:09:57.840Z,12.55
2022-12-23T01:12:24.376Z,12.52
2022-12-23T01:14:50.962Z,12.50
2022-12-23T01:17:18.395Z,12.48
2022-12-23T01:19:45.066Z,12.47
2022-12-23T01:22:11.713Z,12.46
2022-12-23T01:24:38.268Z,12.45
2022-12-23T01:27:04.796Z,12.47
2022-12-23T01:29:31.439Z,12.45
2022-12-23T01:31:58.088Z,12.43
2022-12-23T01:34:24.822Z,12.42
2022-12-23T01:36:51.449Z,12.39
2022-12-23T01:39:18.185Z,12.38
2022-12-23T01:42:03.130Z,12.36
2022-12-23T01:44:54.331Z,12.34
2022-12-23T01:47:50.906Z,12.34
2022-12-23T01:50:49.352Z,12.29
2022-12-23T01:53:18.961Z,12.28
2022-12-23T01:55:56.441Z,12.25
2022-12-23T01:58:30.483Z,12.23
2022-12-23T02:01:16.513Z,12.23
2022-12-23T02:03:44.710Z,12.23
2022-12-23T02:06:37.162Z,12.20
2022-12-23T02:09:17.419Z,12.19
2022-12-23T02:11:53.757Z,12.21
2022-12-23T02:15:04.079Z,12.26
2022-12-23T02:17:48.762Z,12.30
2022-12-23T02:20:48.934Z,12.30
2022-12-23T02:24:02.514Z,12.30
2022-12-23T02:26:50.148Z,12.32
2022-12-23T02:29:35.593Z,12.33
2022-12-23T02:32:07.920Z,12.38
2022-12-23T02:34:49.379Z,12.39
2022-12-23T02:37:31.014Z,12.42
2022-12-23T02:40:16.278Z,12.42
2022-12-23T02:43:07.430Z,12.42
2022-12-23T02:45:47.224Z,12.45
2022-12-23T02:48:44.476Z,12.44
2022-12-23T02:51:14.054Z,12.48
2022-12-23T02:53:47.800Z,12.49
2022-12-23T02:56:17.120Z,12.51
2022-12-23T02:58:55.993Z,12.53
2022-12-23T03:01:26.286Z,12.59
2022-12-23T03:03:53.132Z,12.62
2022-12-23T03:06:25.703Z,12.61
2022-12-23T03:08:55.365Z,12.63
2022-12-23T03:11:24.531Z,12.65
2022-12-23T03:14:10.373Z,12.68
2022-12-23T03:17:07.966Z,12.67
2022-12-23T03:19:44.411Z,12.69
2022-12-23T03:22:23.594Z,12.69
2022-12-23T03:25:03.368Z,12.70
2022-12-23T03:27:48.521Z,12.72
2022-12-23T03:30:18.060Z,12.74
2022-12-23T03:32:53.773Z,12.71
2022-12-23T03:35:29.895Z,12.70
2022-12-23T03:37:59.287Z,12.71
2022-12-23T03:40:36.080Z,12.71
2022-12-23T03:43:11.474Z,12.70
2022-12-23T03:45:44.915Z,12.70
2022-12-23T03:48:26.831Z,12.67
2022-12-23T03:50:59.404Z,12.67
2022-12-23T03:53:31.864Z,12.68
2022-12-23T03:56:12.940Z,12.65
2022-12-23T03:58:54.793Z,12.62
2022-12-23T04:01:30.719Z,12.62
2022-12-23T04:04:12.773Z,12.64
2022-12-23T04:06:46.992Z,12.65
2022-12-23T04:09:19.946Z,12.64
2022-12-23T04:11:49.063Z,12.63
2022-12-23T04:14:20.486Z,12.65
2022-12-23T04:16:49.285Z,12.65
2022-12-23T04:19:16.026Z,12.65
2022-12-23T04:21:42.766Z,12.66
2022-12-23T04:24:09.361Z,12.64
2022-12-23T04:26:35.921Z,12.65
2022-12-23T04:29:02.488Z,12.69
2022-12-23T04:31:29.173Z,12.72
2022-12-23T04:33:55.755Z,12.74
2022-12-23T04:36:22.432Z,12.74
2022-12-23T04:38:49.017Z,12.73
2022-12-23T04:41:15.603Z,12.73
2022-12-23T04:43:42.589Z,12.75
2022-12-23T04:46:10.204Z,12.77
2022-12-23T04:48:36.820Z,12.75
2022-12-23T04:51:04.130Z,12.73
2022-12-23T04:53:30.807Z,12.73
2022-12-23T04:55:57.376Z,12.75
2022-12-23T04:58:25.187Z,12.72
2022-12-23T05:01:06.318Z,12.74
2022-12-23T05:03:33.311Z,12.79
2022-12-23T05:05:59.989Z,12.80
2022-12-23T05:08:26.608Z,12.77
2022-12-23T05:10:53.207Z,12.79
2022-12-23T05:13:19.906Z,12.80
2022-12-23T05:15:49.244Z,12.82
2022-12-23T05:18:16.329Z,12.80
2022-12-23T05:20:43.099Z,12.81
2022-12-23T05:23:09.866Z,12.76
2022-12-23T05:25:38.134Z,12.71
2022-12-23T05:28:06.112Z,12.66
2022-12-23T05:30:32.728Z,12.66
2022-12-23T05:32:59.567Z,12.66
2022-12-23T05:35:27.557Z,12.68
2022-12-23T05:37:54.179Z,12.66
2022-12-23T05:40:24.126Z,12.67
2022-12-23T05:42:55.355Z,12.70
2022-12-23T05:45:22.447Z,12.72
2022-12-23T05:47:49.072Z,12.73
2022-12-23T05:50:15.768Z,12.76
2022-12-23T05:52:42.372Z,12.75
2022-12-23T05:55:09.570Z,12.80
2022-12-23T05:57:36.217Z,12.97
2022-12-23T06:00:04.004Z,13.14
2022-12-23T06:02:30.927Z,13.30
2022-12-23T06:04:57.681Z,13.49
2022-12-23T06:07:24.242Z,13.58
2022-12-23T06:09:50.816Z,13.75
2022-12-23T06:12:17.405Z,13.86
2022-12-23T06:14:43.942Z,13.89
2022-12-23T06:17:10.499Z,13.94
2022-12-23T06:19:37.177Z,13.99
2022-12-23T06:22:03.732Z,14.10
2022-12-23T06:24:30.285Z,14.20
2022-12-23T06:26:57.571Z,14.24
2022-12-23T06:29:25.002Z,14.32
2022-12-23T06:31:51.812Z,14.27
2022-12-23T06:34:18.530Z,14.07
2022-12-23T06:36:45.074Z,13.86
2022-12-23T06:39:11.787Z,13.71
2022-12-23T06:41:38.414Z,13.52
2022-12-23T06:44:05.337Z,13.39
2022-12-23T06:46:32.056Z,13.25
2022-12-23T06:48:58.805Z,13.15
2022-12-23T06:51:25.368Z,13.10
2022-12-23T06:53:51.995Z,13.03
2022-12-23T06:56:18.975Z,12.96
2022-12-23T06:58:45.595Z,12.93
2022-12-23T07:01:12.221Z,12.90
2022-12-23T07:03:39.038Z,12.87
2022-12-23T07:06:05.985Z,12.83
2022-12-23T07:08:32.542Z,12.77
2022-12-23T07:10:59.930Z,12.70
2022-12-23T07:13:27.259Z,12.69
2022-12-23T07:15:53.823Z,12.69
2022-12-23T07:18:22.854Z,12.69
2022-12-23T07:20:50.187Z,12.69
2022-12-23T07:23:17.069Z,12.67
2022-12-23T07:25:43.840Z,12.67
2022-12-23T07:28:10.477Z,12.66
2022-12-23T07:30:37.085Z,12.67
2022-12-23T07:33:03.716Z,12.66
2022-12-23T07:35:30.351Z,12.65
2022-12-23T07:37:57.131Z,12.64
2022-12-23T07:40:24.208Z,12.63
2022-12-23T07:42:54.745Z,12.63
2022-12-23T07:45:21.409Z,12.66
2022-12-23T07:47:48.070Z,12.65
2022-12-23T07:50:14.778Z,12.68
2022-12-23T07:52:41.368Z,12.71
2022-12-23T07:55:08.455Z,12.75
2022-12-23T07:57:38.084Z,12.77
2022-12-23T08:00:10.187Z,12.74
2022-12-23T08:02:36.899Z,12.74
2022-12-23T08:05:03.950Z,12.76
2022-12-23T08:07:30.516Z,12.76
2022-12-23T08:09:57.307Z,12.77
2022-12-23T08:12:23.874Z,12.77
2022-12-23T08:14:52.621Z,12.79
2022-12-23T08:17:21.474Z,12.79
2022-12-23T08:19:48.827Z,12.79
2022-12-23T08:22:15.835Z,12.79
2022-12-23T08:24:42.406Z,12.81
2022-12-23T08:27:09.154Z,12.80
2022-12-23T08:29:36.602Z,12.78
2022-12-23T08:32:03.525Z,12.76
2022-12-23T08:34:31.003Z,12.74
2022-12-23T08:36:57.579Z,12.75
2022-12-23T08:39:24.328Z,12.78
2022-12-23T08:41:50.926Z,12.82
2022-12-23T08:44:17.870Z,12.86
2022-12-23T08:46:44.917Z,12.87
2022-12-23T08:49:11.837Z,12.87
2022-12-23T08:51:39.067Z,12.86
2022-12-23T08:54:06.574Z,12.82
2022-12-23T08:56:40.292Z,12.81
2022-12-23T08:59:07.493Z,12.83
2022-12-23T09:01:34.834Z,12.88
2022-12-23T09:04:03.739Z,12.90
2022-12-23T09:06:42.732Z,12.92
2022-12-23T09:09:12.049Z,12.97
2022-12-23T09:11:38.997Z,13.01
2022-12-23T09:14:08.552Z,13.06
2022-12-23T09:16:35.404Z,13.09
2022-12-23T09:19:02.169Z,13.12
2022-12-23T09:21:28.938Z,13.16
2022-12-23T09:23:55.606Z,13.22
2022-12-23T09:26:27.993Z,13.29
2022-12-23T09:28:54.831Z,13.36
2022-12-23T09:31:22.958Z,13.43
2022-12-23T09:33:53.368Z,13.46
2022-12-23T09:36:20.919Z,13.51
2022-12-23T09:38:47.459Z,13.54
2022-12-23T09:41:29.126Z,13.58
2022-12-23T09:44:17.247Z,13.67
2022-12-23T09:46:56.991Z,13.74
2022-12-23T09:49:24.079Z,13.81
2022-12-23T09:51:54.240Z,13.87
2022-12-23T09:54:23.693Z,13.91
2022-12-23T09:57:09.108Z,13.91
2022-12-23T09:59:50.871Z,13.96
2022-12-23T10:02:42.583Z,13.96
2022-12-23T10:05:15.394Z,13.96
2022-12-23T10:07:55.574Z,13.99
2022-12-23T10:10:34.309Z,13.99
2022-12-23T10:13:03.578Z,14.03
2022-12-23T10:15:32.950Z,14.06
2022-12-23T10:18:06.258Z,14.05
2022-12-23T10:20:44.445Z,14.08
2022-12-23T10:23:25.236Z,14.09
2022-12-23T10:25:52.716Z,14.11
2022-12-23T10:28:19.385Z,14.10
2022-12-23T10:31:38.837Z,14.09
2022-12-23T10:34:04.527Z,14.07
2022-12-23T10:36:50.454Z,14.05
2022-12-23T10:39:22.727Z,14.03
2022-12-23T10:42:22.212Z,14.01
2022-12-23T10:45:03.869Z,14.06
2022-12-23T10:47:36.525Z,14.01
2022-12-23T10:50:24.801Z,13.98
2022-12-23T10:52:53.674Z,13.94
2022-12-23T10:55:33.210Z,13.92
2022-12-23T10:58:11.397Z,13.93
2022-12-23T11:00:41.096Z,13.92
2022-12-23T11:03:18.913Z,13.86
2022-12-23T11:05:48.839Z,13.83
2022-12-23T11:08:15.634Z,13.79
2022-12-23T11:10:42.404Z,13.81
2022-12-23T11:13:09.161Z,13.83
2022-12-23T11:15:40.780Z,13.83
2022-12-23T11:18:19.314Z,13.86
2022-12-23T11:21:02.623Z,13.86
2022-12-23T11:23:36.819Z,13.90
2022-12-23T11:26:09.845Z,13.91
2022-12-23T11:28:47.538Z,13.97
2022-12-23T11:31:17.032Z,14.01
2022-12-23T11:33:55.439Z,14.03
2022-12-23T11:36:25.292Z,14.07
2022-12-23T11:38:59.413Z,14.12
2022-12-23T11:41:29.379Z,14.15
2022-12-23T11:44:04.524Z,14.18
2022-12-23T11:46:33.701Z,14.21
2022-12-23T11:49:15.026Z,14.20
2022-12-23T11:51:43.676Z,14.24
2022-12-23T11:54:19.193Z,14.28
2022-12-23T11:56:50.469Z,14.34
2022-12-23T11:59:34.519Z,14.37
2022-12-23T12:02:06.006Z,14.41
2022-12-23T12:04:35.794Z,14.46
2022-12-23T12:07:04.258Z,14.47
2022-12-23T12:09:32.844Z,14.49
2022-12-23T12:12:12.341Z,14.49
2022-12-23T12:14:46.594Z,14.52
2022-12-23T12:17:19.709Z,14.53
2022-12-23T12:19:55.227Z,14.54
2022-12-23T12:22:32.211Z,14.59
2022-12-23T12:25:05.836Z,14.65
2022-12-23T12:27:38.265Z,14.72
2022-12-23T12:30:08.862Z,14.77
2022-12-23T12:32:46.975Z,14.79
2022-12-23T12:35:19.840Z,14.82
2022-12-23T12:37:57.807Z,14.86
2022-12-23T12:40:32.580Z,14.90
2022-12-23T12:43:33.418Z,14.91
2022-12-23T12:46:12.184Z,14.92
2022-12-23T12:48:47.817Z,14.92
2022-12-23T12:51:30.001Z,14.95
2022-12-23T12:54:04.675Z,14.94
2022-12-23T12:56:55.840Z,14.99
2022-12-23T12:59:32.892Z,15.05
2022-12-23T13:02:16.346Z,15.09
2022-12-23T13:04:59.406Z,15.10
2022-12-23T13:07:43.959Z,15.10
2022-12-23T13:10:44.638Z,15.14
2022-12-23T13:13:51.857Z,15.17
2022-12-23T13:16:56.071Z,15.18
2022-12-23T13:19:45.548Z,15.18
2022-12-23T13:22:32.880Z,15.16
2022-12-23T13:25:17.438Z,15.18
2022-12-23T13:28:09.247Z,15.20
2022-12-23T13:30:42.817Z,15.23
2022-12-23T13:33:37.247Z,15.25
2022-12-23T13:36:09.276Z,15.30
2022-12-23T13:38:41.845Z,15.28
2022-12-23T13:41:26.984Z,15.27
2022-12-23T13:44:02.668Z,15.28
2022-12-23T13:47:00.835Z,15.25
2022-12-23T13:49:46.224Z,15.19
2022-12-23T13:52:22.289Z,15.11
2022-12-23T13:55:07.236Z,15.02
2022-12-23T13:57:55.586Z,14.97
2022-12-23T14:00:30.265Z,14.94
2022-12-23T14:03:03.046Z,14.95
2022-12-23T14:05:32.302Z,15.00
2022-12-23T14:08:01.346Z,15.04
2022-12-23T14:10:28.604Z,15.02
2022-12-23T14:13:02.645Z,15.01
2022-12-23T14:15:32.074Z,15.00
2022-12-23T14:18:25.525Z,14.93
2022-12-23T14:21:12.308Z,14.95
2022-12-23T14:24:17.350Z,14.83
2022-12-23T14:26:56.675Z,14.81
2022-12-23T14:29:51.169Z,14.75
2022-12-23T14:32:29.813Z,14.73
2022-12-23T14:35:16.796Z,14.68
2022-12-23T14:38:03.739Z,14.66
2022-12-23T14:40:39.360Z,14.62
2022-12-23T14:43:27.722Z,14.61
2022-12-23T14:46:04.875Z,14.64
2022-12-23T14:48:34.603Z,14.65
2022-12-23T14:51:23.606Z,14.66
2022-12-23T14:53:53.875Z,14.72
2022-12-23T14:56:38.731Z,14.75
2022-12-23T14:59:24.170Z,14.81
2022-12-23T15:01:58.585Z,14.86
2022-12-23T15:04:34.123Z,14.91
2022-12-23T15:07:07.561Z,14.94
2022-12-23T15:09:45.593Z,14.95
2022-12-23T15:12:16.713Z,14.99
2022-12-23T15:14:57.433Z,15.01
2022-12-23T15:17:26.019Z,14.99
2022-12-23T15:19:53.718Z,15.01
2022-12-23T15:22:28.269Z,15.03
2022-12-23T15:24:58.722Z,15.00
2022-12-23T15:27:35.526Z,14.96
2022-12-23T15:30:02.306Z,14.94
2022-12-23T15:32:29.743Z,14.94
2022-12-23T15:35:05.290Z,14.93
2022-12-23T15:37:33.275Z,14.93
2022-12-23T15:40:09.594Z,14.94
2022-12-23T15:42:39.097Z,14.92
2022-12-23T15:45:23.793Z,14.92
2022-12-23T15:47:51.008Z,14.93
2022-12-23T15:50:18.877Z,14.91
2022-12-23T15:52:47.617Z,14.90
2022-12-23T15:55:25.044Z,14.85
2022-12-23T15:57:52.418Z,14.87
2022-12-23T16:00:19.992Z,14.88
2022-12-23T16:03:00.400Z,14.87
2022-12-23T16:05:37.675Z,14.86
2022-12-23T16:08:16.511Z,14.86
2022-12-23T16:11:03.497Z,14.84
2022-12-23T16:13:30.315Z,14.84
2022-12-23T16:16:29.250Z,14.78
2022-12-23T16:18:55.988Z,14.79
2022-12-23T16:21:27.480Z,14.76
2022-12-23T16:23:55.301Z,14.76
2022-12-23T16:26:22.098Z,14.73
2022-12-23T16:28:52.591Z,14.72
2022-12-23T16:31:21.120Z,14.71
2022-12-23T16:33:47.761Z,14.71
2022-12-23T16:36:26.510Z,14.69
2022-12-23T16:39:00.117Z,14.69
2022-12-23T16:41:26.830Z,14.69
2022-12-23T16:43:53.376Z,14.69
2022-12-23T16:46:23.146Z,14.69
2022-12-23T16:48:52.814Z,14.76
2022-12-23T16:51:23.470Z,14.78
2022-12-23T16:53:52.616Z,14.78
2022-12-23T16:56:21.152Z,14.77
2022-12-23T16:58:47.852Z,14.77
2022-12-23T17:01:24.841Z,14.76
2022-12-23T17:03:52.113Z,14.76
2022-12-23T17:06:19.946Z,14.75
2022-12-23T17:08:46.890Z,14.76
2022-12-23T17:11:41.787Z,14.73
2022-12-23T17:14:15.837Z,14.72
2022-12-23T17:16:42.900Z,14.67
2022-12-23T17:19:09.583Z,14.65
2022-12-23T17:21:39.818Z,14.64
2022-12-23T17:24:10.549Z,14.63
2022-12-23T17:26:38.081Z,14.65
2022-12-23T17:29:05.632Z,14.65
2022-12-23T17:31:34.028Z,14.63
2022-12-23T17:34:01.736Z,14.63
2022-12-23T17:36:28.974Z,14.63
2022-12-23T17:38:55.792Z,14.61
2022-12-23T17:41:29.442Z,14.62
2022-12-23T17:43:56.749Z,14.59
2022-12-23T17:46:24.345Z,14.58
2022-12-23T17:48:51.431Z,14.58
2022-12-23T17:51:20.658Z,14.59
2022-12-23T17:53:53.149Z,14.60
2022-12-23T17:56:24.623Z,14.58
2022-12-23T17:58:51.400Z,14.61
2022-12-23T18:01:32.673Z,14.60
2022-12-23T18:04:00.061Z,14.56
2022-12-23T18:06:28.360Z,14.30
2022-12-23T18:08:57.265Z,13.81
2022-12-23T18:11:33.835Z,13.16
2022-12-23T18:14:01.410Z,12.85
2022-12-23T18:16:28.552Z,12.63
2022-12-23T18:18:55.573Z,12.47
2022-12-23T18:21:27.884Z,12.32
2022-12-23T18:23:57.807Z,12.21
2022-12-23T18:26:25.037Z,12.14
2022-12-23T18:28:54.065Z,12.12
2022-12-23T18:31:24.240Z,12.12
2022-12-23T18:33:51.220Z,12.10
2022-12-23T18:36:22.299Z,12.11
2022-12-23T18:38:49.290Z,12.09
2022-12-23T18:41:16.016Z,12.09
2022-12-23T18:43:42.786Z,12.13
2022-12-23T18:46:09.539Z,12.17
2022-12-23T18:48:36.233Z,12.21
2022-12-23T18:51:02.931Z,12.28
2022-12-23T18:53:29.525Z,12.37
2022-12-23T18:55:56.165Z,12.42
2022-12-23T18:58:23.413Z,12.53
2022-12-23T19:00:52.667Z,12.62
2022-12-23T19:03:26.303Z,12.68
2022-12-23T19:05:54.908Z,12.76
2022-12-23T19:08:26.811Z,12.89
2022-12-23T19:10:55.448Z,12.92
2022-12-23T19:13:22.062Z,12.96
2022-12-23T19:15:49.032Z,13.01
2022-12-23T19:18:17.942Z,13.02
2022-12-23T19:20:47.846Z,13.00
2022-12-23T19:23:14.851Z,12.98
2022-12-23T19:25:45.189Z,13.00
2022-12-23T19:28:19.110Z,13.00
2022-12-23T19:30:45.678Z,13.01
2022-12-23T19:33:13.295Z,12.99
2022-12-23T19:35:43.586Z,12.98
2022-12-23T19:38:10.757Z,13.00
2022-12-23T19:40:37.366Z,13.00
2022-12-23T19:43:04.797Z,13.01
2022-12-23T19:45:31.390Z,13.03
2022-12-23T19:47:58.056Z,13.02
2022-12-23T19:50:24.827Z,12.98
2022-12-23T19:52:51.676Z,12.96
2022-12-23T19:55:18.306Z,12.94
2022-12-23T19:57:44.954Z,12.92
2022-12-23T20:00:12.073Z,12.92
2022-12-23T20:02:38.726Z,12.93
2022-12-23T20:05:05.826Z,12.91
2022-12-23T20:07:32.402Z,12.95
2022-12-23T20:09:58.947Z,12.95
2022-12-23T20:12:27.447Z,12.95
2022-12-23T20:14:53.995Z,12.99
2022-12-23T20:17:20.557Z,13.03
2022-12-23T20:19:47.114Z,13.03
2022-12-23T20:22:13.905Z,13.04
2022-12-23T20:24:40.479Z,13.06
2022-12-23T20:27:11.355Z,13.07
2022-12-23T20:29:39.151Z,13.02
2022-12-23T20:32:06.088Z,13.09
2022-12-23T20:34:38.806Z,13.14
2022-12-23T20:37:06.213Z,13.15
2022-12-23T20:39:32.791Z,13.19
2022-12-23T20:41:59.404Z,13.19
2022-12-23T20:44:35.715Z,13.20
2022-12-23T20:47:05.497Z,13.19
2022-12-23T20:49:32.244Z,13.19
2022-12-23T20:51:58.808Z,13.23
2022-12-23T20:54:32.105Z,13.27
2022-12-23T20:56:59.577Z,13.27
2022-12-23T20:59:26.209Z,13.26
2022-12-23T21:01:52.892Z,13.27
2022-12-23T21:04:20.537Z,13.28
2022-12-23T21:06:47.971Z,13.28
2022-12-23T21:09:15.642Z,13.28
2022-12-23T21:11:44.537Z,13.24
2022-12-23T21:14:12.128Z,13.23
2022-12-23T21:16:39.394Z,13.17
2022-12-23T21:19:07.962Z,13.13
2022-12-23T21:21:35.124Z,13.14
2022-12-23T21:24:04.285Z,13.14
2022-12-23T21:26:32.997Z,13.12
2022-12-23T21:29:01.321Z,13.10
2022-12-23T21:31:30.035Z,13.10
2022-12-23T21:33:57.229Z,13.07
2022-12-23T21:36:27.346Z,13.01
2022-12-23T21:38:54.009Z,13.01
2022-12-23T21:41:29.237Z,12.97
2022-12-23T21:43:57.014Z,12.93
2022-12-23T21:46:24.532Z,12.92
2022-12-23T21:48:51.602Z,12.88
2022-12-23T21:51:40.855Z,12.85
2022-12-23T21:54:09.832Z,12.87
2022-12-23T21:56:36.803Z,12.88
2022-12-23T21:59:06.737Z,12.87
2022-12-23T22:01:33.802Z,12.87
2022-12-23T22:04:00.973Z,12.87
2022-12-23T22:06:33.686Z,12.82
2022-12-23T22:09:00.268Z,12.79
2022-12-23T22:11:29.476Z,12.79
2022-12-23T22:13:57.656Z,12.79
2022-12-23T22:16:26.546Z,12.80
2022-12-23T22:18:53.916Z,12.74
2022-12-23T22:21:22.844Z,12.74
2022-12-23T22:23:51.045Z,12.73
2022-12-23T22:26:24.744Z,12.71
2022-12-23T22:28:54.108Z,12.69
2022-12-23T22:31:47.107Z,12.70
2022-12-23T22:34:16.814Z,12.72
2022-12-23T22:36:43.631Z,12.75
2022-12-23T22:39:19.417Z,12.77
2022-12-23T22:41:46.713Z,12.79
2022-12-23T22:44:13.638Z,12.77
2022-12-23T22:46:40.413Z,12.76
2022-12-23T22:49:07.304Z,12.75
2022-12-23T22:51:33.875Z,12.72
2022-12-23T22:54:02.640Z,12.69
2022-12-23T22:56:29.255Z,12.62
2022-12-23T22:58:55.898Z,12.62
2022-12-23T23:01:31.147Z,12.57
2022-12-23T23:03:59.727Z,12.54
2022-12-23T23:06:31.780Z,12.51
2022-12-23T23:08:58.701Z,12.45
2022-12-23T23:11:27.107Z,12.47
2022-12-23T23:13:54.509Z,12.45
2022-12-23T23:16:23.116Z,12.45
2022-12-23T23:18:50.213Z,12.40
2022-12-23T23:21:17.191Z,12.38
2022-12-23T23:23:43.879Z,12.37
2022-12-23T23:26:10.822Z,12.33
2022-12-23T23:28:41.099Z,12.35
2022-12-23T23:33:55.722Z,12.31
2022-12-23T23:36:22.333Z,12.29
2022-12-23T23:38:48.920Z,12.26
2022-12-23T23:41:20.744Z,12.24
2022-12-23T23:43:49.733Z,12.19
2022-12-23T23:46:16.456Z,12.19
2022-12-23T23:48:43.086Z,12.16
2022-12-23T23:51:09.690Z,12.14
2022-12-23T23:53:36.287Z,12.13
2022-12-23T23:56:05.768Z,12.12
2022-12-23T23:58:32.991Z,12.10
